createdAt,value
2023-04-27T00:01:42.512Z,94774.81
2023-04-27T00:04:09.436Z,94776.84
2023-04-27T00:06:36.467Z,94766.28
2023-04-27T00:09:04.658Z,94779.84
2023-04-27T00:11:31.910Z,94771.56
2023-04-27T00:13:58.945Z,94773.94
2023-04-27T00:16:26.716Z,94772.81
2023-04-27T00:18:54.094Z,94780.91
2023-04-27T00:21:21.146Z,94767.81
2023-04-27T00:23:48.217Z,94756.84
2023-04-27T00:26:15.036Z,94758.91
2023-04-27T00:28:44.258Z,94757.59
2023-04-27T00:31:11.675Z,94758.03
2023-04-27T00:33:38.559Z,94759.06
2023-04-27T00:36:06.219Z,94755.09
2023-04-27T00:38:33.151Z,94749.75
2023-04-27T00:41:07.760Z,94760.91
2023-04-27T00:43:43.819Z,94749.66
2023-04-27T00:46:13.166Z,94760.16
2023-04-27T00:48:41.170Z,94755.38
2023-04-27T00:51:08.634Z,94747.94
2023-04-27T00:53:36.893Z,94750.56
2023-04-27T00:56:07.515Z,94744.22
2023-04-27T00:58:35.080Z,94744.88
2023-04-27T01:01:02.114Z,94748.16
2023-04-27T01:03:30.758Z,94738.13
2023-04-27T01:05:59.736Z,94750.03
2023-04-27T01:08:26.468Z,94747.56
2023-04-27T01:10:54.760Z,94745.47
2023-04-27T01:13:22.237Z,94744.28
2023-04-27T01:15:49.152Z,94751.25
2023-04-27T01:18:15.888Z,94756.44
2023-04-27T01:20:43.295Z,94756.28
2023-04-27T01:23:17.447Z,94753.25
2023-04-27T01:25:45.009Z,94755.50
2023-04-27T01:28:12.301Z,94750.06
2023-04-27T01:30:39.097Z,94757.88
2023-04-27T01:33:06.564Z,94749.94
2023-04-27T01:35:33.320Z,94754.84
2023-04-27T01:38:00.504Z,94758.72
2023-04-27T01:40:27.607Z,94754.59
2023-04-27T01:42:54.273Z,94751.16
2023-04-27T01:45:21.424Z,94762.44
2023-04-27T01:47:52.004Z,94761.06
2023-04-27T01:50:20.716Z,94763.13
2023-04-27T01:52:47.597Z,94762.75
2023-04-27T01:55:14.879Z,94776.59
2023-04-27T01:57:42.590Z,94777.84
2023-04-27T02:00:10.038Z,94777.19
2023-04-27T02:02:51.185Z,94770.03
2023-04-27T02:05:18.295Z,94774.81
2023-04-27T02:07:46.167Z,94776.28
2023-04-27T02:10:12.939Z,94771.81
2023-04-27T02:12:39.627Z,94773.91
2023-04-27T02:15:08.694Z,94772.31
2023-04-27T02:17:35.960Z,94788.00
2023-04-27T02:20:02.727Z,94794.03
2023-04-27T02:22:29.863Z,94782.19
2023-04-27T02:24:56.753Z,94768.41
2023-04-27T02:27:23.479Z,94779.22
2023-04-27T02:29:50.974Z,94772.44
2023-04-27T02:32:18.258Z,94784.34
2023-04-27T02:34:45.428Z,94781.41
2023-04-27T02:37:12.519Z,94788.31
2023-04-27T02:39:39.324Z,94781.41
2023-04-27T02:42:06.410Z,94780.59
2023-04-27T02:44:33.128Z,94791.22
2023-04-27T02:47:00.610Z,94791.66
2023-04-27T02:49:27.824Z,94787.72
2023-04-27T02:51:54.596Z,94789.38
2023-04-27T02:54:21.302Z,94796.75
2023-04-27T02:56:48.065Z,94793.09
2023-04-27T02:59:15.131Z,94793.47
2023-04-27T03:01:42.276Z,94791.75
2023-04-27T03:04:09.820Z,94791.81
2023-04-27T03:06:36.676Z,94792.13
2023-04-27T03:09:03.977Z,94793.13
2023-04-27T03:11:31.148Z,94799.00
2023-04-27T03:13:58.126Z,94800.41
2023-04-27T03:16:24.968Z,94800.50
2023-04-27T03:18:51.744Z,94801.03
2023-04-27T03:21:18.768Z,94796.53
2023-04-27T03:23:49.069Z,94800.19
2023-04-27T03:26:16.581Z,94800.81
2023-04-27T03:28:43.539Z,94805.50
2023-04-27T03:31:12.210Z,94802.06
2023-04-27T03:33:39.940Z,94795.34
2023-04-27T03:36:08.262Z,94803.84
2023-04-27T03:38:35.715Z,94802.06
2023-04-27T03:41:03.117Z,94804.16
2023-04-27T03:43:29.942Z,94814.66
2023-04-27T03:45:56.872Z,94807.75
2023-04-27T03:48:24.308Z,94817.84
2023-04-27T03:50:53.234Z,94818.69
2023-04-27T03:53:20.797Z,94814.91
2023-04-27T03:55:48.326Z,94821.69
2023-04-27T03:58:17.470Z,94822.22
2023-04-27T04:01:03.421Z,94815.25
2023-04-27T04:03:30.526Z,94815.00
2023-04-27T04:05:57.504Z,94811.63
2023-04-27T04:08:24.288Z,94828.53
2023-04-27T04:10:51.006Z,94834.13
2023-04-27T04:13:17.789Z,94833.00
2023-04-27T04:15:44.951Z,94828.47
2023-04-27T04:18:12.389Z,94830.69
2023-04-27T04:20:39.122Z,94840.44
2023-04-27T04:23:06.284Z,94836.75
2023-04-27T04:25:33.674Z,94848.16
2023-04-27T04:28:01.120Z,94838.69
2023-04-27T04:30:29.067Z,94852.84
2023-04-27T04:32:55.852Z,94851.28
2023-04-27T04:35:22.686Z,94855.06
2023-04-27T04:37:49.993Z,94853.16
2023-04-27T04:40:17.139Z,94850.75
2023-04-27T04:42:44.140Z,94864.31
2023-04-27T04:45:11.569Z,94865.59
2023-04-27T04:47:39.814Z,94855.78
2023-04-27T04:50:07.377Z,94860.09
2023-04-27T04:52:35.177Z,94860.88
2023-04-27T04:55:01.928Z,94867.22
2023-04-27T04:57:31.284Z,94863.78
2023-04-27T04:59:58.238Z,94865.38
2023-04-27T05:02:25.214Z,94860.72
2023-04-27T05:04:57.027Z,94857.06
2023-04-27T05:07:25.109Z,94856.63
2023-04-27T05:09:52.689Z,94859.22
2023-04-27T05:12:19.512Z,94873.53
2023-04-27T05:14:46.725Z,94873.19
2023-04-27T05:17:13.422Z,94871.53
2023-04-27T05:19:40.310Z,94878.53
2023-04-27T05:22:07.012Z,94875.88
2023-04-27T05:24:34.326Z,94887.13
2023-04-27T05:27:02.491Z,94885.22
2023-04-27T05:29:29.665Z,94874.59
2023-04-27T05:31:56.445Z,94880.47
2023-04-27T05:34:23.257Z,94885.53
2023-04-27T05:36:50.226Z,94880.03
2023-04-27T05:39:17.125Z,94872.00
2023-04-27T05:41:43.902Z,94865.03
2023-04-27T05:44:10.986Z,94862.19
2023-04-27T05:46:38.876Z,94863.75
2023-04-27T05:49:05.880Z,94864.31
2023-04-27T05:51:33.626Z,94869.59
2023-04-27T05:54:02.114Z,94872.78
2023-04-27T05:56:29.033Z,94882.69
2023-04-27T05:58:55.763Z,94892.84
2023-04-27T06:01:24.114Z,94896.38
2023-04-27T06:03:51.070Z,94899.19
2023-04-27T06:06:17.908Z,94898.34
2023-04-27T06:08:44.844Z,94880.00
2023-04-27T06:11:11.967Z,94882.47
2023-04-27T06:13:39.270Z,94881.50
2023-04-27T06:16:06.184Z,94881.66
2023-04-27T06:18:32.931Z,94891.81
2023-04-27T06:21:01.663Z,94895.88
2023-04-27T06:23:28.867Z,94882.81
2023-04-27T06:25:56.058Z,94877.75
2023-04-27T06:28:23.440Z,94903.66
2023-04-27T06:30:50.268Z,94889.84
2023-04-27T06:33:17.857Z,94901.69
2023-04-27T06:35:47.386Z,94897.63
2023-04-27T06:38:14.398Z,94910.75
2023-04-27T06:40:41.180Z,94895.53
2023-04-27T06:43:08.337Z,94906.72
2023-04-27T06:45:36.335Z,94916.63
2023-04-27T06:48:03.351Z,94882.66
2023-04-27T06:50:30.820Z,94893.59
2023-04-27T06:52:57.963Z,94908.44
2023-04-27T06:55:25.358Z,94889.28
2023-04-27T06:57:52.506Z,94914.38
2023-04-27T07:00:19.900Z,94901.66
2023-04-27T07:02:47.103Z,94905.94
2023-04-27T07:05:13.992Z,94899.22
2023-04-27T07:07:40.716Z,94903.97
2023-04-27T07:10:08.899Z,94896.06
2023-04-27T07:12:35.854Z,94880.28
2023-04-27T07:15:04.502Z,94892.91
2023-04-27T07:17:31.364Z,94896.88
2023-04-27T07:19:58.631Z,94899.09
2023-04-27T07:22:25.715Z,94898.78
2023-04-27T07:24:52.769Z,94899.91
2023-04-27T07:27:20.439Z,94884.09
2023-04-27T07:29:48.181Z,94898.84
2023-04-27T07:32:15.235Z,94896.78
2023-04-27T07:34:52.926Z,94908.06
2023-04-27T07:37:22.167Z,94905.13
2023-04-27T07:39:50.483Z,94898.44
2023-04-27T07:42:18.585Z,94906.19
2023-04-27T07:44:45.306Z,94906.44
2023-04-27T07:47:13.305Z,94908.72
2023-04-27T07:49:40.677Z,94896.19
2023-04-27T07:52:08.421Z,94909.50
2023-04-27T07:54:35.307Z,94910.59
2023-04-27T07:57:07.890Z,94906.03
2023-04-27T07:59:34.640Z,94928.22
2023-04-27T08:02:17.838Z,94914.28
2023-04-27T08:04:47.046Z,94917.00
2023-04-27T08:07:18.484Z,94912.53
2023-04-27T08:09:46.421Z,94913.91
2023-04-27T08:12:13.144Z,94934.28
2023-04-27T08:14:39.831Z,94892.56
2023-04-27T08:17:07.299Z,94901.59
2023-04-27T08:19:34.424Z,94918.69
2023-04-27T08:22:01.463Z,94923.78
2023-04-27T08:24:28.374Z,94920.28
2023-04-27T08:26:55.616Z,94928.78
2023-04-27T08:29:27.992Z,94920.56
2023-04-27T08:31:58.855Z,94919.25
2023-04-27T08:34:26.848Z,94910.97
2023-04-27T08:36:54.659Z,94922.16
2023-04-27T08:39:21.895Z,94926.28
2023-04-27T08:41:49.013Z,94932.22
2023-04-27T08:44:16.527Z,94938.38
2023-04-27T08:46:43.408Z,94882.47
2023-04-27T08:49:10.940Z,94895.25
2023-04-27T08:51:37.839Z,94918.50
2023-04-27T08:54:04.585Z,94907.25
2023-04-27T08:56:31.935Z,94904.88
2023-04-27T08:59:00.676Z,94924.34
2023-04-27T09:01:27.770Z,94926.06
2023-04-27T09:04:00.397Z,94940.91
2023-04-27T09:06:32.066Z,94934.84
2023-04-27T09:08:59.717Z,94930.94
2023-04-27T09:11:38.619Z,94899.00
2023-04-27T09:14:23.988Z,94899.22
2023-04-27T09:16:58.587Z,94945.59
2023-04-27T09:19:30.068Z,94900.16
2023-04-27T09:22:11.691Z,94958.06
2023-04-27T09:24:39.054Z,94902.06
2023-04-27T09:27:07.210Z,94930.09
2023-04-27T09:29:36.317Z,94963.44
2023-04-27T09:32:16.786Z,94976.25
2023-04-27T09:34:44.244Z,94974.84
2023-04-27T09:37:11.647Z,94952.72
2023-04-27T09:39:39.109Z,94953.13
2023-04-27T09:42:06.242Z,94930.81
2023-04-27T09:44:34.572Z,94953.56
2023-04-27T09:47:01.376Z,94940.13
2023-04-27T09:49:29.563Z,94926.63
2023-04-27T09:51:58.818Z,94932.22
2023-04-27T09:54:29.259Z,94931.13
2023-04-27T09:57:30.176Z,94937.91
2023-04-27T10:00:34.022Z,94898.91
2023-04-27T10:03:19.885Z,94956.41
2023-04-27T10:05:58.801Z,94944.84
2023-04-27T10:08:26.827Z,94932.22
2023-04-27T10:10:53.724Z,94902.22
2023-04-27T10:13:26.816Z,94927.59
2023-04-27T10:15:54.301Z,94880.88
2023-04-27T10:18:29.854Z,94921.53
2023-04-27T10:20:58.197Z,94904.28
2023-04-27T10:23:27.521Z,94907.84
2023-04-27T10:25:54.852Z,94937.66
2023-04-27T10:28:21.620Z,94878.88
2023-04-27T10:30:49.351Z,94874.91
2023-04-27T10:33:21.795Z,94919.69
2023-04-27T10:35:57.283Z,94890.69
2023-04-27T10:38:31.051Z,94907.09
2023-04-27T10:41:03.075Z,94887.03
2023-04-27T10:43:31.953Z,94882.16
2023-04-27T10:46:15.903Z,94895.38
2023-04-27T10:48:44.626Z,94884.66
2023-04-27T10:51:17.406Z,94898.09
2023-04-27T10:53:44.770Z,94870.75
2023-04-27T10:56:11.802Z,94887.84
2023-04-27T11:01:09.241Z,94916.63
2023-04-27T11:03:36.702Z,94916.81
2023-04-27T11:06:05.652Z,94891.53
2023-04-27T11:08:36.782Z,94938.69
2023-04-27T11:11:05.361Z,94944.28
2023-04-27T11:13:33.630Z,94899.06
2023-04-27T11:16:00.967Z,94897.16
2023-04-27T11:18:31.659Z,94927.63
2023-04-27T11:21:18.840Z,94869.97
2023-04-27T11:23:46.238Z,94868.28
2023-04-27T11:26:16.030Z,94845.72
2023-04-27T11:28:44.479Z,94820.97
2023-04-27T11:31:11.848Z,94849.00
2023-04-27T11:33:40.245Z,94873.00
2023-04-27T11:36:21.178Z,94887.59
2023-04-27T11:38:48.305Z,94905.63
2023-04-27T11:41:16.179Z,94903.13
2023-04-27T11:43:49.863Z,94946.31
2023-04-27T11:46:21.308Z,94967.06
2023-04-27T11:48:49.166Z,94905.00
2023-04-27T11:51:16.384Z,94932.78
2023-04-27T11:53:48.268Z,94872.03
2023-04-27T11:56:15.372Z,94926.88
2023-04-27T11:58:44.445Z,94893.50
2023-04-27T12:01:13.526Z,94896.44
2023-04-27T12:03:40.822Z,94888.50
2023-04-27T12:06:27.787Z,94896.44
2023-04-27T12:08:58.281Z,94895.47
2023-04-27T12:11:28.786Z,94889.59
2023-04-27T12:13:57.054Z,94888.41
2023-04-27T12:16:23.850Z,94909.09
2023-04-27T12:18:51.016Z,94901.31
2023-04-27T12:21:18.425Z,94927.81
2023-04-27T12:23:45.612Z,94904.81
2023-04-27T12:26:14.957Z,94905.56
2023-04-27T12:28:42.522Z,94943.50
2023-04-27T12:31:13.509Z,94904.84
2023-04-27T12:33:40.270Z,94887.28
2023-04-27T12:36:07.412Z,94925.13
2023-04-27T12:38:34.404Z,94877.53
2023-04-27T12:41:02.280Z,94896.78
2023-04-27T12:43:28.997Z,94895.56
2023-04-27T12:45:56.311Z,94907.53
2023-04-27T12:48:23.766Z,94901.53
2023-04-27T12:50:51.535Z,94894.03
2023-04-27T12:53:18.294Z,94927.53
2023-04-27T12:55:45.114Z,94973.50
2023-04-27T12:58:11.949Z,94939.72
2023-04-27T13:00:39.357Z,94871.31
2023-04-27T13:03:07.005Z,94890.88
2023-04-27T13:05:33.760Z,94909.13
2023-04-27T13:08:00.707Z,94861.50
2023-04-27T13:10:29.610Z,94919.06
2023-04-27T13:12:56.736Z,94894.84
2023-04-27T13:15:23.482Z,94877.84
2023-04-27T13:17:50.799Z,94868.03
2023-04-27T13:20:17.701Z,94845.91
2023-04-27T13:22:44.471Z,94880.16
2023-04-27T13:25:11.553Z,94891.63
2023-04-27T13:27:38.495Z,94888.34
2023-04-27T13:30:06.768Z,94912.09
2023-04-27T13:32:33.885Z,94895.72
2023-04-27T13:35:00.645Z,94875.31
2023-04-27T13:37:28.067Z,94846.53
2023-04-27T13:39:54.755Z,94874.31
2023-04-27T13:42:22.018Z,94853.19
2023-04-27T13:44:48.978Z,94853.22
2023-04-27T13:47:15.751Z,94838.25
2023-04-27T13:49:42.979Z,94840.34
2023-04-27T13:52:10.178Z,94855.50
2023-04-27T13:54:37.486Z,94806.91
2023-04-27T13:57:04.253Z,94831.53
2023-04-27T13:59:30.985Z,94835.19
2023-04-27T14:01:58.718Z,94857.41
2023-04-27T14:04:25.553Z,94847.78
2023-04-27T14:06:52.612Z,94878.97
2023-04-27T14:09:19.432Z,94870.94
2023-04-27T14:11:55.719Z,94875.63
2023-04-27T14:14:24.212Z,94902.13
2023-04-27T14:16:51.573Z,94817.13
2023-04-27T14:19:20.605Z,94832.88
2023-04-27T14:21:49.823Z,94795.91
2023-04-27T14:24:16.872Z,94795.72
2023-04-27T14:26:44.586Z,94832.97
2023-04-27T14:29:12.188Z,94828.84
2023-04-27T14:31:40.235Z,94845.81
2023-04-27T14:34:08.061Z,94823.66
2023-04-27T14:36:35.528Z,94803.06
2023-04-27T14:39:02.796Z,94856.63
2023-04-27T14:41:30.430Z,94838.09
2023-04-27T14:43:57.505Z,94807.72
2023-04-27T14:46:24.448Z,94794.34
2023-04-27T14:48:51.760Z,94827.81
2023-04-27T14:51:18.789Z,94806.53
2023-04-27T14:53:45.571Z,94833.22
2023-04-27T14:56:12.568Z,94886.38
2023-04-27T14:58:39.364Z,94845.25
2023-04-27T15:01:07.893Z,94850.44
2023-04-27T15:03:35.024Z,94838.06
2023-04-27T15:06:02.811Z,94825.63
2023-04-27T15:08:32.683Z,94832.59
2023-04-27T15:11:01.066Z,94802.13
2023-04-27T15:13:28.254Z,94817.91
2023-04-27T15:15:57.104Z,94820.63
2023-04-27T15:18:24.905Z,94828.56
2023-04-27T15:21:00.746Z,94822.94
2023-04-27T15:23:27.917Z,94783.28
2023-04-27T15:25:56.990Z,94804.13
2023-04-27T15:28:24.311Z,94802.53
2023-04-27T15:30:51.229Z,94810.94
2023-04-27T15:33:18.886Z,94807.97
2023-04-27T15:35:46.145Z,94806.78
2023-04-27T15:38:14.847Z,94781.06
2023-04-27T15:40:41.904Z,94783.22
2023-04-27T15:43:08.888Z,94790.63
2023-04-27T15:45:36.289Z,94788.94
2023-04-27T15:48:03.211Z,94799.09
2023-04-27T15:50:31.022Z,94755.41
2023-04-27T15:52:58.165Z,94775.13
2023-04-27T15:55:25.022Z,94751.41
2023-04-27T15:57:52.608Z,94757.75
2023-04-27T16:00:22.675Z,94776.00
2023-04-27T16:02:49.845Z,94786.66
2023-04-27T16:05:17.097Z,94796.81
2023-04-27T16:07:45.921Z,94769.47
2023-04-27T16:10:13.560Z,94799.78
2023-04-27T16:12:40.897Z,94808.09
2023-04-27T16:15:11.493Z,94792.38
2023-04-27T16:17:39.193Z,94767.44
2023-04-27T16:20:06.940Z,94744.25
2023-04-27T16:22:35.094Z,94767.16
2023-04-27T16:25:02.371Z,94739.59
2023-04-27T16:27:29.238Z,94765.31
2023-04-27T16:29:57.458Z,94758.72
2023-04-27T16:32:24.542Z,94779.03
2023-04-27T16:34:51.985Z,94760.06
2023-04-27T16:37:18.965Z,94800.22
2023-04-27T16:39:46.907Z,94777.44
2023-04-27T16:42:18.678Z,94767.81
2023-04-27T16:44:46.610Z,94759.06
2023-04-27T16:47:13.778Z,94768.31
2023-04-27T16:49:43.584Z,94786.63
2023-04-27T16:52:11.282Z,94773.13
2023-04-27T16:54:38.583Z,94793.22
2023-04-27T16:57:05.419Z,94780.84
2023-04-27T16:59:32.554Z,94785.47
2023-04-27T17:02:08.996Z,94777.09
2023-04-27T17:04:40.839Z,94770.63
2023-04-27T17:07:09.309Z,94780.44
2023-04-27T17:09:39.186Z,94787.13
2023-04-27T17:12:10.985Z,94792.31
2023-04-27T17:14:38.854Z,94787.44
2023-04-27T17:17:06.496Z,94770.63
2023-04-27T17:19:33.347Z,94764.28
2023-04-27T17:22:00.575Z,94764.91
2023-04-27T17:24:27.390Z,94772.03
2023-04-27T17:26:54.646Z,94743.81
2023-04-27T17:29:21.812Z,94771.56
2023-04-27T17:31:50.432Z,94793.81
2023-04-27T17:34:17.704Z,94791.41
2023-04-27T17:36:44.473Z,94769.03
2023-04-27T17:39:13.194Z,94789.03
2023-04-27T17:41:40.875Z,94772.63
2023-04-27T17:44:07.730Z,94764.41
2023-04-27T17:46:34.641Z,94811.06
2023-04-27T17:49:02.031Z,94771.56
2023-04-27T17:51:28.746Z,94791.59
2023-04-27T17:53:55.676Z,94771.25
2023-04-27T17:56:22.811Z,94766.03
2023-04-27T17:58:49.638Z,94795.69
2023-04-27T18:01:17.372Z,94765.69
2023-04-27T18:03:44.678Z,94794.91
2023-04-27T18:06:11.758Z,94790.97
2023-04-27T18:08:38.991Z,94812.56
2023-04-27T18:11:06.727Z,94796.56
2023-04-27T18:13:33.501Z,94803.72
2023-04-27T18:16:00.216Z,94801.75
2023-04-27T18:18:28.395Z,94804.47
2023-04-27T18:20:55.470Z,94802.00
2023-04-27T18:23:22.344Z,94805.53
2023-04-27T18:25:49.782Z,94798.03
2023-04-27T18:28:17.240Z,94797.31
2023-04-27T18:30:44.031Z,94808.66
2023-04-27T18:33:10.940Z,94814.72
2023-04-27T18:35:37.991Z,94811.75
2023-04-27T18:38:04.759Z,94819.78
2023-04-27T18:40:32.783Z,94815.25
2023-04-27T18:43:00.199Z,94823.97
2023-04-27T18:45:27.206Z,94830.16
2023-04-27T18:47:54.577Z,94833.09
2023-04-27T18:50:21.425Z,94833.97
2023-04-27T18:52:48.283Z,94833.47
2023-04-27T18:55:16.839Z,94838.22
2023-04-27T18:57:44.065Z,94839.00
2023-04-27T19:00:13.965Z,94840.25
2023-04-27T19:02:41.111Z,94842.56
2023-04-27T19:05:13.109Z,94837.75
2023-04-27T19:07:41.053Z,94850.22
2023-04-27T19:10:08.530Z,94850.72
2023-04-27T19:12:35.965Z,94849.03
2023-04-27T19:15:03.851Z,94852.97
2023-04-27T19:17:31.496Z,94853.63
2023-04-27T19:19:58.741Z,94843.72
2023-04-27T19:22:27.439Z,94842.56
2023-04-27T19:24:54.608Z,94853.78
2023-04-27T19:27:21.318Z,94862.53
2023-04-27T19:29:53.654Z,94853.34
2023-04-27T19:32:22.236Z,94856.03
2023-04-27T19:34:49.402Z,94860.81
2023-04-27T19:37:17.338Z,94859.28
2023-04-27T19:39:44.431Z,94858.94
2023-04-27T19:42:11.386Z,94862.25
2023-04-27T19:44:38.076Z,94856.47
2023-04-27T19:47:05.571Z,94853.25
2023-04-27T19:49:33.732Z,94850.50
2023-04-27T19:52:00.998Z,94848.91
2023-04-27T19:54:27.892Z,94854.59
2023-04-27T19:56:55.767Z,94841.09
2023-04-27T19:59:22.884Z,94859.63
2023-04-27T20:01:49.663Z,94854.94
2023-04-27T20:04:18.198Z,94849.84
2023-04-27T20:06:46.378Z,94854.00
2023-04-27T20:09:13.156Z,94848.34
2023-04-27T20:11:40.617Z,94839.63
2023-04-27T20:14:07.334Z,94853.56
2023-04-27T20:16:34.166Z,94860.81
2023-04-27T20:19:01.194Z,94852.03
2023-04-27T20:21:28.194Z,94856.53
2023-04-27T20:23:55.550Z,94850.44
2023-04-27T20:26:22.569Z,94855.03
2023-04-27T20:28:49.637Z,94853.25
2023-04-27T20:31:16.610Z,94846.94
2023-04-27T20:33:43.421Z,94849.66
2023-04-27T20:36:17.313Z,94843.13
2023-04-27T20:38:46.200Z,94837.31
2023-04-27T20:41:13.089Z,94835.97
2023-04-27T20:43:40.594Z,94844.53
2023-04-27T20:46:08.436Z,94829.97
2023-04-27T20:48:35.273Z,94837.81
2023-04-27T20:51:02.797Z,94835.75
2023-04-27T20:53:29.995Z,94834.94
2023-04-27T20:55:57.255Z,94842.94
2023-04-27T20:58:24.010Z,94840.91
2023-04-27T21:00:51.608Z,94823.56
2023-04-27T21:03:18.766Z,94828.44
2023-04-27T21:05:46.003Z,94828.44
2023-04-27T21:08:12.784Z,94825.00
2023-04-27T21:10:39.876Z,94831.34
2023-04-27T21:13:07.127Z,94819.16
2023-04-27T21:15:34.546Z,94814.44
2023-04-27T21:18:02.007Z,94821.94
2023-04-27T21:20:28.802Z,94817.94
2023-04-27T21:22:56.265Z,94817.78
2023-04-27T21:25:23.844Z,94818.09
2023-04-27T21:27:51.022Z,94824.06
2023-04-27T21:30:18.495Z,94831.75
2023-04-27T21:32:45.442Z,94822.94
2023-04-27T21:35:12.502Z,94821.31
2023-04-27T21:37:39.216Z,94820.97
2023-04-27T21:40:07.021Z,94823.28
2023-04-27T21:42:33.711Z,94817.16
2023-04-27T21:45:01.029Z,94820.72
2023-04-27T21:47:28.144Z,94825.34
2023-04-27T21:49:55.232Z,94819.00
2023-04-27T21:52:21.989Z,94818.16
2023-04-27T21:54:48.784Z,94813.38
2023-04-27T21:57:16.931Z,94807.34
2023-04-27T21:59:45.427Z,94805.78
2023-04-27T22:02:12.729Z,94798.75
2023-04-27T22:04:39.699Z,94803.75
2023-04-27T22:07:10.911Z,94810.81
2023-04-27T22:09:38.232Z,94808.38
2023-04-27T22:12:05.768Z,94812.72
2023-04-27T22:14:32.901Z,94807.31
2023-04-27T22:17:01.126Z,94803.91
2023-04-27T22:19:28.889Z,94806.69
2023-04-27T22:21:55.761Z,94811.25
2023-04-27T22:24:22.707Z,94810.13
2023-04-27T22:26:49.800Z,94809.19
2023-04-27T22:29:16.793Z,94823.19
2023-04-27T22:31:44.271Z,94817.28
2023-04-27T22:34:14.730Z,94804.66
2023-04-27T22:36:42.032Z,94808.09
2023-04-27T22:39:09.036Z,94806.84
2023-04-27T22:41:36.151Z,94808.97
2023-04-27T22:44:02.967Z,94807.53
2023-04-27T22:46:29.910Z,94813.03
2023-04-27T22:48:58.648Z,94810.03
2023-04-27T22:51:27.305Z,94798.88
2023-04-27T22:53:54.664Z,94811.00
2023-04-27T22:56:22.536Z,94800.72
2023-04-27T22:58:50.196Z,94802.25
2023-04-27T23:01:17.084Z,94804.91
2023-04-27T23:03:44.112Z,94792.00
2023-04-27T23:06:16.817Z,94787.75
2023-04-27T23:08:46.022Z,94791.22
2023-04-27T23:11:15.495Z,94792.28
2023-04-27T23:13:42.390Z,94789.38
2023-04-27T23:16:10.047Z,94784.38
2023-04-27T23:18:37.115Z,94785.69
2023-04-27T23:21:04.339Z,94775.75
2023-04-27T23:23:31.172Z,94782.38
2023-04-27T23:25:58.216Z,94778.06
2023-04-27T23:28:24.974Z,94790.38
2023-04-27T23:30:55.431Z,94784.31
2023-04-27T23:33:22.831Z,94789.28
2023-04-27T23:35:49.718Z,94788.78
2023-04-27T23:38:16.623Z,94774.91
2023-04-27T23:40:43.537Z,94780.22
2023-04-27T23:43:10.566Z,94769.63
2023-04-27T23:45:37.738Z,94763.66
2023-04-27T23:48:04.920Z,94761.28
2023-04-27T23:50:32.012Z,94760.53
2023-04-27T23:52:58.947Z,94760.22
2023-04-27T23:55:25.623Z,94766.53
2023-04-27T23:57:52.557Z,94752.31
